Nearby METAR Reports  aus Husum-Schobuell

Datum und Uhrzeit beachten

ETNS - Schleswig(Ger-Na, Germany
Distance from station: E 31km
Updated: Thu, 23-Jan-2020 8:20:00 CET
Mostly Cloudy
Mostly Cloudy
 Wind from WSW
Wind: WSW 13 km/h
Temperature: 4°C
Wind Chill: 1°C
Dew Point: 3°C
Humidity: 93%
Barometer: 1032 hPa
Clouds: Mostly Cloudy
Visibility: 10 km
Cloud details: Mostly Cloudy 457 m
2020/01/23 07:20 ETNS 230720Z 25007KT 9999 BKN015 04/03 Q1032 WHT WHT TEMPO YLO
ETNH - Hohn (ger-Afb), Germany
Distance from station: ESE 39km
Updated: Thu, 23-Jan-2020 8:20:00 CET
Mist, Mostly cloudy
Mist, Mostly cloudy
 Wind from S
Wind: S 4 km/h
Temperature: 4°C
Dew Point: 4°C
Humidity: 100%
Barometer: 1032 hPa
Summary: Mist
Clouds: Mostly Cloudy
Visibility: 5 km
Cloud details: Few Clouds 244 m
Mostly Cloudy 457 m
2020/01/23 07:20 ETNH 230720Z 19002KT 5000 BR FEW008 BKN015 04/04 Q1032 WHT WHT TEMPO YLO
 
ETGG - Meierwik, Germany
Distance from station: NE 48km
Updated: Thu, 23-Jan-2020 8:20:00 CET

 Wind from W
Wind: W 22 km/h
Temperature: 6°C
Wind Chill: 2°C
Dew Point: 4°C
Humidity: 87%
Barometer: 1031 hPa
2020/01/23 07:20 ETGG 230720Z AUTO 27012KT //// // ////// 06/04 Q1031 ///
EDXW - Westerland/Sylt, Germany
Distance from station: NW 65km
Updated: Wed, 22-Jan-2020 15:20:00 CET
NOT Current
Clear
Clear
 Wind from WNW
Wind: WNW 19 km/h
Summary: Clear
Visibility: greater than 10 km
2020/01/22 14:20 EDXW 221420Z 30010KT CAVOK 06/// Q1032
 
EDHK - Kiel/Holtenau Ci, Germany
Distance from station: E 73km
Updated: Thu, 23-Jan-2020 8:20:00 CET
Mostly Cloudy
Mostly Cloudy
 Wind from W
Wind: W 11 km/h
Temperature: 4°C
Wind Chill: 1°C
Dew Point: 4°C
Humidity: 100%
Barometer: 1032 hPa
Clouds: Mostly Cloudy
Visibility: 9 km
Cloud details: Mostly Cloudy 396 m
2020/01/23 07:20 EDHK 230720Z 27006KT 9000 BKN013 04/04 Q1032
EKSP - Skrydstrup(Dan-A, Denmark
Distance from station: N 82km
Updated: Thu, 23-Jan-2020 8:20:00 CET
Mostly Cloudy
Mostly Cloudy
 Wind from WSW
Wind: WSW 17 km/h
Temperature: 5°C
Wind Chill: 2°C
Dew Point: 5°C
Humidity: 100%
Barometer: 1031 hPa
Clouds: Mostly Cloudy
Visibility: 7 km
Cloud details: Few Clouds 91 m
Mostly Cloudy 335 m
Mostly Cloudy 457 m
2020/01/23 07:20 EKSP 230720Z 25009KT 7000 FEW003 BKN011 BKN015 05/05 Q1031 BECMG 3000 BR BKN003
 
EDDH - Hamburg/Fuhlsbut, Germany
Distance from station: SE 114km
Updated: Thu, 23-Jan-2020 8:20:00 CET
Mostly Cloudy
Mostly Cloudy
 Wind from W
Wind: W 9 km/h
Temperature: 5°C
Wind Chill: 3°C
Dew Point: 4°C
Humidity: 93%
Barometer: 1033 hPa
Clouds: Mostly Cloudy
Visibility: 9 km
Cloud details: Few Clouds 183 m
Mostly Cloudy 549 m
2020/01/23 07:20 EDDH 230720Z 26005KT 9000 FEW006 BKN018 05/04 Q1033 TEMPO BKN006
EKEB - Esbjerg, Denmark
Distance from station: NNW 118km
Updated: Thu, 23-Jan-2020 8:20:00 CET
Mist, Overcast
Mist, Overcast
 Wind from SW
Wind: SW 13 km/h
Temperature: 6°C
Wind Chill: 3°C
Dew Point: 5°C
Humidity: 93%
Barometer: 1031 hPa
Summary: Mist
Clouds: Overcast
Visibility: 2 km
Cloud details: Overcast 91 m
2020/01/23 07:20 EKEB 230720Z AUTO 23007KT 1800 BR OVC003/// 06/05 Q1031
 
EDHL - Luebeck/Blankens, Germany
Distance from station: SE 134km
Updated: Thu, 23-Jan-2020 8:20:00 CET
Mostly Cloudy
Mostly Cloudy
 Wind from W
Wind: W 7 km/h
Temperature: 5°C
Wind Chill: 3°C
Dew Point: 3°C
Humidity: 87%
Barometer: 1033 hPa
Clouds: Mostly Cloudy
Visibility: 10 km
Cloud details: Mostly Cloudy 549 m
2020/01/23 07:20 EDHL 230720Z 27004KT 240V310 9999 BKN018 05/03 Q1033
EKBI - Billund Airport, Denmark
Distance from station: N 136km
Updated: Thu, 23-Jan-2020 8:20:00 CET
Mist, Overcast
Mist, Overcast
 Wind from WSW
Wind: WSW 15 km/h
Temperature: 5°C
Wind Chill: 2°C
Dew Point: 5°C
Humidity: 100%
Barometer: 1030 hPa
Summary: Mist
Clouds: Overcast
Visibility: 2 km
Cloud details: Overcast 61 m
2020/01/23 07:20 EKBI 230720Z AUTO 24008KT 2000 BR OVC002/// 05/05 Q1030

Metar display script from Saratoga-Weather.org

Home : schobuell-wetter.de